Sylvan, Minnesota
Current Conditions -  °F | °C
As of 9:53 AM on Wednesday 22 Oct 2014 (Local Time) from KBRD Reporting Station
Clear Clear  
Wind Chill: 40°   Ceiling: Unl
Heat Index: 46°   Visibility: 10mi
Dew Point: 38°   Wind: 14mph
Humidity: 73%   Direction: 170°S
Pressure: 30.08"   Gusts: 28mph
Location:  46.4437°N, 94.4479°W
Report Text: KBRD 221453Z AUTO 17012G24KT 10SM CLR 08/03 A3008 RMK AO2 SLP195 T00780033 58006
Loading
Personal Weather Stations






























Interactive Weather Map
Tropical Storm Tracking
New forecast layout! Learn more

10-Day Weather Forecast

Advertisements
Track Severe Weather on mobile